sensor_id;sensor_type;location;lat;lon;timestamp;temperature;humidity
22984;DHT22;11658;48.908;9.140;2022-11-20T06:01:04;5.70;99.90
22984;DHT22;11658;48.908;9.140;2022-11-20T06:03:30;5.80;99.90
22984;DHT22;11658;48.908;9.140;2022-11-20T06:05:55;5.70;99.90
22984;DHT22;11658;48.908;9.140;2022-11-20T06:08:21;5.70;99.90
22984;DHT22;11658;48.908;9.140;2022-11-20T06:10:46;5.70;99.90
22984;DHT22;11658;48.908;9.140;2022-11-20T06:13:12;5.70;99.90
22984;DHT22;11658;48.908;9.140;2022-11-20T06:15:37;5.70;99.90
22984;DHT22;11658;48.908;9.140;2022-11-20T06:18:03;5.80;99.90
22984;DHT22;11658;48.908;9.140;2022-11-20T06:20:28;5.80;99.90
22984;DHT22;11658;48.908;9.140;2022-11-20T06:22:54;5.80;99.90
22984;DHT22;11658;48.908;9.140;2022-11-20T06:25:19;5.70;99.90
22984;DHT22;11658;48.908;9.140;2022-11-20T06:27:45;5.70;99.90
22984;DHT22;11658;48.908;9.140;2022-11-20T06:30:11;5.70;99.90
22984;DHT22;11658;48.908;9.140;2022-11-20T06:32:37;5.70;99.90
22984;DHT22;11658;48.908;9.140;2022-11-20T06:35:03;5.70;99.90
22984;DHT22;11658;48.908;9.140;2022-11-20T06:37:28;5.70;99.90
22984;DHT22;11658;48.908;9.140;2022-11-20T06:39:54;5.70;99.90
22984;DHT22;11658;48.908;9.140;2022-11-20T06:42:19;5.70;99.90
22984;DHT22;11658;48.908;9.140;2022-11-20T06:44:45;5.70;99.90
22984;DHT22;11658;48.908;9.140;2022-11-20T06:47:10;5.70;99.90
22984;DHT22;11658;48.908;9.140;2022-11-20T06:49:36;5.70;99.90
22984;DHT22;11658;48.908;9.140;2022-11-20T06:52:04;5.70;99.90
22984;DHT22;11658;48.908;9.140;2022-11-20T06:54:29;5.70;99.90
22984;DHT22;11658;48.908;9.140;2022-11-20T06:56:55;5.80;99.90
22984;DHT22;11658;48.908;9.140;2022-11-20T06:59:20;5.80;99.90
22984;DHT22;11658;48.908;9.140;2022-11-20T07:01:46;5.80;99.90
22984;DHT22;11658;48.908;9.140;2022-11-20T07:04:12;5.90;99.90
22984;DHT22;11658;48.908;9.140;2022-11-20T07:06:38;5.90;99.90
22984;DHT22;11658;48.908;9.140;2022-11-20T07:09:03;5.80;99.90
22984;DHT22;11658;48.908;9.140;2022-11-20T07:11:29;5.80;99.90
22984;DHT22;11658;48.908;9.140;2022-11-20T07:13:56;5.90;99.90
22984;DHT22;11658;48.908;9.140;2022-11-20T07:16:22;5.90;99.90
22984;DHT22;11658;48.908;9.140;2022-11-20T07:18:47;6.00;99.90
22984;DHT22;11658;48.908;9.140;2022-11-20T07:21:13;6.10;99.90
22984;DHT22;11658;48.908;9.140;2022-11-20T07:23:39;6.10;99.90
22984;DHT22;11658;48.908;9.140;2022-11-20T07:26:06;6.20;99.90
22984;DHT22;11658;48.908;9.140;2022-11-20T07:28:32;6.20;99.90
22984;DHT22;11658;48.908;9.140;2022-11-20T07:30:57;6.20;99.90
22984;DHT22;11658;48.908;9.140;2022-11-20T07:33:23;6.20;99.90
22984;DHT22;11658;48.908;9.140;2022-11-20T07:35:48;6.10;99.90
22984;DHT22;11658;48.908;9.140;2022-11-20T07:38:14;6.10;99.90
22984;DHT22;11658;48.908;9.140;2022-11-20T07:40:40;6.10;99.90
22984;DHT22;11658;48.908;9.140;2022-11-20T07:43:05;6.20;99.90
22984;DHT22;11658;48.908;9.140;2022-11-20T07:45:31;6.20;99.90
22984;DHT22;11658;48.908;9.140;2022-11-20T07:47:56;6.20;99.90
22984;DHT22;11658;48.908;9.140;2022-11-20T07:50:22;6.10;99.90
22984;DHT22;11658;48.908;9.140;2022-11-20T07:52:47;6.10;99.90
22984;DHT22;11658;48.908;9.140;2022-11-20T07:55:13;6.10;99.90
22984;DHT22;11658;48.908;9.140;2022-11-20T07:57:39;6.10;99.90
22984;DHT22;11658;48.908;9.140;2022-11-20T08:00:06;6.20;99.90
22984;DHT22;11658;48.908;9.140;2022-11-20T08:02:36;6.20;99.90
22984;DHT22;11658;48.908;9.140;2022-11-20T08:05:01;6.30;99.90
22984;DHT22;11658;48.908;9.140;2022-11-20T08:07:27;6.40;99.90
22984;DHT22;11658;48.908;9.140;2022-11-20T08:09:53;6.50;99.90
22984;DHT22;11658;48.908;9.140;2022-11-20T08:12:20;6.60;99.90
22984;DHT22;11658;48.908;9.140;2022-11-20T08:15:05;6.70;99.90
22984;DHT22;11658;48.908;9.140;2022-11-20T08:17:31;6.80;99.90
22984;DHT22;11658;48.908;9.140;2022-11-20T08:19:56;6.90;99.90
22984;DHT22;11658;48.908;9.140;2022-11-20T08:22:22;7.00;99.90
22984;DHT22;11658;48.908;9.140;2022-11-20T08:24:48;7.00;99.90
22984;DHT22;11658;48.908;9.140;2022-11-20T08:27:14;7.10;99.90
22984;DHT22;11658;48.908;9.140;2022-11-20T08:29:39;7.00;99.90
22984;DHT22;11658;48.908;9.140;2022-11-20T08:32:05;7.10;99.90
22984;DHT22;11658;48.908;9.140;2022-11-20T08:34:31;7.10;99.90
22984;DHT22;11658;48.908;9.140;2022-11-20T08:36:56;7.10;99.90
22984;DHT22;11658;48.908;9.140;2022-11-20T08:39:22;7.10;99.90
22984;DHT22;11658;48.908;9.140;2022-11-20T08:41:47;7.00;99.90
22984;DHT22;11658;48.908;9.140;2022-11-20T08:44:13;7.00;99.90
22984;DHT22;11658;48.908;9.140;2022-11-20T08:46:40;6.90;99.90
22984;DHT22;11658;48.908;9.140;2022-11-20T08:49:08;7.00;99.90
22984;DHT22;11658;48.908;9.140;2022-11-20T08:51:35;6.90;99.90
22984;DHT22;11658;48.908;9.140;2022-11-20T08:54:01;6.90;99.90
22984;DHT22;11658;48.908;9.140;2022-11-20T08:56:27;6.90;99.90
22984;DHT22;11658;48.908;9.140;2022-11-20T08:58:53;6.90;99.90
22984;DHT22;11658;48.908;9.140;2022-11-20T09:01:20;7.00;99.90
22984;DHT22;11658;48.908;9.140;2022-11-20T09:03:46;7.10;99.90
22984;DHT22;11658;48.908;9.140;2022-11-20T09:06:12;7.10;99.90
22984;DHT22;11658;48.908;9.140;2022-11-20T09:08:38;7.00;99.90
22984;DHT22;11658;48.908;9.140;2022-11-20T09:11:05;6.90;99.90
22984;DHT22;11658;48.908;9.140;2022-11-20T09:13:32;6.90;99.90
22984;DHT22;11658;48.908;9.140;2022-11-20T09:16:00;6.90;99.90
22984;DHT22;11658;48.908;9.140;2022-11-20T09:18:27;6.90;99.90
22984;DHT22;11658;48.908;9.140;2022-11-20T09:20:59;6.90;99.90
22984;DHT22;11658;48.908;9.140;2022-11-20T09:23:25;7.00;99.90
22984;DHT22;11658;48.908;9.140;2022-11-20T09:25:51;7.00;99.90
22984;DHT22;11658;48.908;9.140;2022-11-20T09:28:18;7.00;99.90
22984;DHT22;11658;48.908;9.140;2022-11-20T09:30:44;7.00;99.90
22984;DHT22;11658;48.908;9.140;2022-11-20T09:33:10;7.00;99.90
22984;DHT22;11658;48.908;9.140;2022-11-20T09:35:35;7.00;99.90
22984;DHT22;11658;48.908;9.140;2022-11-20T09:38:05;7.00;99.90
22984;DHT22;11658;48.908;9.140;2022-11-20T09:40:32;7.10;99.90
22984;DHT22;11658;48.908;9.140;2022-11-20T09:43:19;7.10;99.90
22984;DHT22;11658;48.908;9.140;2022-11-20T09:46:14;7.20;99.90
22984;DHT22;11658;48.908;9.140;2022-11-20T09:51:43;7.20;99.90
22984;DHT22;11658;48.908;9.140;2022-11-20T09:54:18;7.30;99.90
22984;DHT22;11658;48.908;9.140;2022-11-20T10:02:25;7.20;99.90
22984;DHT22;11658;48.908;9.140;2022-11-20T10:05:14;7.30;99.90
22984;DHT22;11658;48.908;9.140;2022-11-20T10:07:48;7.40;99.90
22984;DHT22;11658;48.908;9.140;2022-11-20T10:10:36;7.40;99.90
22984;DHT22;11658;48.908;9.140;2022-11-20T10:21:08;7.30;99.90
22984;DHT22;11658;48.908;9.140;2022-11-20T10:29:52;7.20;99.90
22984;DHT22;11658;48.908;9.140;2022-11-20T10:32:32;7.20;99.90
22984;DHT22;11658;48.908;9.140;2022-11-20T10:37:42;7.30;99.90
22984;DHT22;11658;48.908;9.140;2022-11-20T10:43:13;7.90;99.90
22984;DHT22;11658;48.908;9.140;2022-11-20T10:48:25;7.40;99.90
22984;DHT22;11658;48.908;9.140;2022-11-20T10:53:55;7.00;99.90
22984;DHT22;11658;48.908;9.140;2022-11-20T10:56:28;6.90;99.90
22984;DHT22;11658;48.908;9.140;2022-11-20T11:01:49;7.00;99.90
22984;DHT22;11658;48.908;9.140;2022-11-20T11:07:27;6.90;99.90
22984;DHT22;11658;48.908;9.140;2022-11-20T11:09:53;6.90;99.90
22984;DHT22;11658;48.908;9.140;2022-11-20T11:12:21;6.90;99.90
22984;DHT22;11658;48.908;9.140;2022-11-20T11:14:51;7.00;99.90
22984;DHT22;11658;48.908;9.140;2022-11-20T11:22:47;7.20;99.90
22984;DHT22;11658;48.908;9.140;2022-11-20T11:25:24;7.30;99.90
22984;DHT22;11658;48.908;9.140;2022-11-20T11:27:52;7.40;99.90
22984;DHT22;11658;48.908;9.140;2022-11-20T11:30:19;7.60;99.90
22984;DHT22;11658;48.908;9.140;2022-11-20T11:32:45;7.90;99.90
22984;DHT22;11658;48.908;9.140;2022-11-20T11:35:32;8.10;99.90
22984;DHT22;11658;48.908;9.140;2022-11-20T11:38:06;8.20;99.90
22984;DHT22;11658;48.908;9.140;2022-11-20T11:40:34;8.30;99.90
22984;DHT22;11658;48.908;9.140;2022-11-20T11:43:15;8.40;99.90
22984;DHT22;11658;48.908;9.140;2022-11-20T11:46:02;8.40;99.90
22984;DHT22;11658;48.908;9.140;2022-11-20T11:48:27;8.60;99.90
22984;DHT22;11658;48.908;9.140;2022-11-20T11:50:53;8.60;99.90
22984;DHT22;11658;48.908;9.140;2022-11-20T11:53:23;8.70;99.90
22984;DHT22;11658;48.908;9.140;2022-11-20T11:56:05;8.20;99.90
22984;DHT22;11658;48.908;9.140;2022-11-20T11:58:49;8.00;99.90
22984;DHT22;11658;48.908;9.140;2022-11-20T12:01:32;7.90;99.90
22984;DHT22;11658;48.908;9.140;2022-11-20T12:04:28;7.90;99.90
22984;DHT22;11658;48.908;9.140;2022-11-20T12:07:08;8.00;99.90
22984;DHT22;11658;48.908;9.140;2022-11-20T12:09:41;8.20;99.90
22984;DHT22;11658;48.908;9.140;2022-11-20T12:12:18;8.60;99.90
22984;DHT22;11658;48.908;9.140;2022-11-20T12:14:48;8.80;99.90
22984;DHT22;11658;48.908;9.140;2022-11-20T12:17:16;9.00;99.90
22984;DHT22;11658;48.908;9.140;2022-11-20T12:19:43;9.20;99.90
22984;DHT22;11658;48.908;9.140;2022-11-20T12:25:19;9.00;99.90
22984;DHT22;11658;48.908;9.140;2022-11-20T12:30:42;8.80;99.90
22984;DHT22;11658;48.908;9.140;2022-11-20T12:36:57;9.00;99.90
22984;DHT22;11658;48.908;9.140;2022-11-20T12:39:34;9.00;99.90
22984;DHT22;11658;48.908;9.140;2022-11-20T13:07:35;9.10;99.90
22984;DHT22;11658;48.908;9.140;2022-11-20T13:10:02;9.10;99.90
22984;DHT22;11658;48.908;9.140;2022-11-20T13:12:46;9.10;99.90
22984;DHT22;11658;48.908;9.140;2022-11-20T13:15:40;9.10;99.90
22984;DHT22;11658;48.908;9.140;2022-11-20T13:18:10;9.10;99.90
22984;DHT22;11658;48.908;9.140;2022-11-20T13:20:41;9.00;99.90
22984;DHT22;11658;48.908;9.140;2022-11-20T13:23:07;9.20;99.90
22984;DHT22;11658;48.908;9.140;2022-11-20T13:25:39;9.30;99.90
22984;DHT22;11658;48.908;9.140;2022-11-20T13:28:29;9.20;99.90
22984;DHT22;11658;48.908;9.140;2022-11-20T13:30:56;9.10;99.90
22984;DHT22;11658;48.908;9.140;2022-11-20T13:33:35;9.10;99.90
22984;DHT22;11658;48.908;9.140;2022-11-20T13:36:23;9.20;99.90
22984;DHT22;11658;48.908;9.140;2022-11-20T13:38:50;9.30;99.90
22984;DHT22;11658;48.908;9.140;2022-11-20T13:44:25;9.60;99.90
22984;DHT22;11658;48.908;9.140;2022-11-20T13:46:52;9.70;99.90
22984;DHT22;11658;48.908;9.140;2022-11-20T13:49:37;9.70;99.90
22984;DHT22;11658;48.908;9.140;2022-11-20T14:00:21;9.50;99.90
22984;DHT22;11658;48.908;9.140;2022-11-20T14:05:35;9.00;99.90
22984;DHT22;11658;48.908;9.140;2022-11-20T14:08:03;8.80;99.90
22984;DHT22;11658;48.908;9.140;2022-11-20T14:10:31;8.70;99.90
22984;DHT22;11658;48.908;9.140;2022-11-20T14:12:57;8.70;99.90
22984;DHT22;11658;48.908;9.140;2022-11-20T14:15:29;8.50;99.90
22984;DHT22;11658;48.908;9.140;2022-11-20T14:17:55;8.50;99.90
22984;DHT22;11658;48.908;9.140;2022-11-20T14:20:24;8.40;99.90
22984;DHT22;11658;48.908;9.140;2022-11-20T14:22:52;8.40;99.90
22984;DHT22;11658;48.908;9.140;2022-11-20T14:27:48;8.20;99.90
22984;DHT22;11658;48.908;9.140;2022-11-20T14:30:21;8.20;99.90
22984;DHT22;11658;48.908;9.140;2022-11-20T14:32:47;8.20;99.90
22984;DHT22;11658;48.908;9.140;2022-11-20T14:35:51;8.20;99.90
22984;DHT22;11658;48.908;9.140;2022-11-20T14:38:13;8.10;99.90
22984;DHT22;11658;48.908;9.140;2022-11-20T14:40:39;8.10;99.90
22984;DHT22;11658;48.908;9.140;2022-11-20T14:45:58;8.00;99.90
22984;DHT22;11658;48.908;9.140;2022-11-20T14:48:31;8.00;99.90
22984;DHT22;11658;48.908;9.140;2022-11-20T14:50:57;8.00;99.90
22984;DHT22;11658;48.908;9.140;2022-11-20T14:53:24;8.00;99.90
22984;DHT22;11658;48.908;9.140;2022-11-20T14:56:01;8.00;99.90
22984;DHT22;11658;48.908;9.140;2022-11-20T14:58:32;7.90;99.90
22984;DHT22;11658;48.908;9.140;2022-11-20T15:01:05;7.90;99.90
22984;DHT22;11658;48.908;9.140;2022-11-20T15:03:39;7.80;99.90
22984;DHT22;11658;48.908;9.140;2022-11-20T15:06:07;7.80;99.90
22984;DHT22;11658;48.908;9.140;2022-11-20T15:08:33;7.80;99.90
22984;DHT22;11658;48.908;9.140;2022-11-20T15:10:59;7.70;99.90
22984;DHT22;11658;48.908;9.140;2022-11-20T15:13:26;7.70;99.90
22984;DHT22;11658;48.908;9.140;2022-11-20T15:15:54;7.60;99.90
22984;DHT22;11658;48.908;9.140;2022-11-20T15:18:26;7.60;99.90
22984;DHT22;11658;48.908;9.140;2022-11-20T15:20:55;7.50;99.90
22984;DHT22;11658;48.908;9.140;2022-11-20T15:23:21;7.50;99.90
22984;DHT22;11658;48.908;9.140;2022-11-20T15:25:48;7.50;99.90
22984;DHT22;11658;48.908;9.140;2022-11-20T15:30:43;7.40;99.90
22984;DHT22;11658;48.908;9.140;2022-11-20T15:33:09;7.40;99.90
22984;DHT22;11658;48.908;9.140;2022-11-20T15:35:35;7.30;99.90
22984;DHT22;11658;48.908;9.140;2022-11-20T15:38:01;7.30;99.90
22984;DHT22;11658;48.908;9.140;2022-11-20T15:40:26;7.20;99.90
22984;DHT22;11658;48.908;9.140;2022-11-20T15:42:52;7.10;99.90
22984;DHT22;11658;48.908;9.140;2022-11-20T15:45:44;7.00;99.90
22984;DHT22;11658;48.908;9.140;2022-11-20T15:48:17;7.00;99.90
22984;DHT22;11658;48.908;9.140;2022-11-20T15:53:30;7.10;99.90
22984;DHT22;11658;48.908;9.140;2022-11-20T15:55:56;7.10;99.90
22984;DHT22;11658;48.908;9.140;2022-11-20T15:58:21;7.00;99.90
22984;DHT22;11658;48.908;9.140;2022-11-20T16:00:49;7.00;99.90
22984;DHT22;11658;48.908;9.140;2022-11-20T16:03:16;7.00;99.90
22984;DHT22;11658;48.908;9.140;2022-11-20T16:05:42;7.00;99.90
22984;DHT22;11658;48.908;9.140;2022-11-20T16:08:08;7.00;99.90
22984;DHT22;11658;48.908;9.140;2022-11-20T16:10:34;6.90;99.90
22984;DHT22;11658;48.908;9.140;2022-11-20T16:13:00;6.90;99.90
22984;DHT22;11658;48.908;9.140;2022-11-20T16:15:52;6.90;99.90
22984;DHT22;11658;48.908;9.140;2022-11-20T16:18:20;6.90;99.90
22984;DHT22;11658;48.908;9.140;2022-11-20T16:20:56;6.80;99.90
22984;DHT22;11658;48.908;9.140;2022-11-20T16:23:22;6.80;99.90
22984;DHT22;11658;48.908;9.140;2022-11-20T16:25:48;6.80;99.90
22984;DHT22;11658;48.908;9.140;2022-11-20T16:28:14;6.80;99.90
22984;DHT22;11658;48.908;9.140;2022-11-20T16:30:40;6.80;99.90
22984;DHT22;11658;48.908;9.140;2022-11-20T16:33:14;6.80;99.90
22984;DHT22;11658;48.908;9.140;2022-11-20T16:35:40;6.80;99.90
22984;DHT22;11658;48.908;9.140;2022-11-20T16:38:06;6.80;99.90
22984;DHT22;11658;48.908;9.140;2022-11-20T16:40:31;6.70;99.90
22984;DHT22;11658;48.908;9.140;2022-11-20T16:42:57;6.80;99.90
22984;DHT22;11658;48.908;9.140;2022-11-20T16:45:31;6.80;99.90
22984;DHT22;11658;48.908;9.140;2022-11-20T16:47:56;6.80;99.90
22984;DHT22;11658;48.908;9.140;2022-11-20T16:50:22;6.70;99.90
22984;DHT22;11658;48.908;9.140;2022-11-20T16:52:48;6.70;99.90
22984;DHT22;11658;48.908;9.140;2022-11-20T16:55:13;6.80;99.90
22984;DHT22;11658;48.908;9.140;2022-11-20T16:57:39;6.80;99.90
22984;DHT22;11658;48.908;9.140;2022-11-20T17:00:07;6.80;99.90
22984;DHT22;11658;48.908;9.140;2022-11-20T17:02:33;6.80;99.90
22984;DHT22;11658;48.908;9.140;2022-11-20T17:04:59;6.90;99.90
22984;DHT22;11658;48.908;9.140;2022-11-20T17:07:25;6.90;99.90
22984;DHT22;11658;48.908;9.140;2022-11-20T17:09:57;6.90;99.90
22984;DHT22;11658;48.908;9.140;2022-11-20T17:12:23;6.90;99.90
22984;DHT22;11658;48.908;9.140;2022-11-20T17:14:48;6.80;99.90
22984;DHT22;11658;48.908;9.140;2022-11-20T17:17:14;6.80;99.90
22984;DHT22;11658;48.908;9.140;2022-11-20T17:19:39;6.70;99.90
22984;DHT22;11658;48.908;9.140;2022-11-20T17:22:05;6.80;99.90
22984;DHT22;11658;48.908;9.140;2022-11-20T17:24:30;6.80;99.90
22984;DHT22;11658;48.908;9.140;2022-11-20T17:26:56;6.80;99.90
22984;DHT22;11658;48.908;9.140;2022-11-20T17:29:21;6.80;99.90
22984;DHT22;11658;48.908;9.140;2022-11-20T17:31:49;6.70;99.90
22984;DHT22;11658;48.908;9.140;2022-11-20T17:34:15;6.80;99.90
22984;DHT22;11658;48.908;9.140;2022-11-20T17:36:42;6.80;99.90
22984;DHT22;11658;48.908;9.140;2022-11-20T17:39:10;6.80;99.90
22984;DHT22;11658;48.908;9.140;2022-11-20T17:41:36;6.80;99.90
22984;DHT22;11658;48.908;9.140;2022-11-20T17:44:02;6.80;99.90
22984;DHT22;11658;48.908;9.140;2022-11-20T17:46:29;6.90;99.90
22984;DHT22;11658;48.908;9.140;2022-11-20T17:48:57;6.90;99.90
22984;DHT22;11658;48.908;9.140;2022-11-20T17:51:25;6.90;99.90
22984;DHT22;11658;48.908;9.140;2022-11-20T17:53:54;6.90;99.90
22984;DHT22;11658;48.908;9.140;2022-11-20T17:56:20;6.90;99.90
22984;DHT22;11658;48.908;9.140;2022-11-20T17:59:10;6.90;99.90
22984;DHT22;11658;48.908;9.140;2022-11-20T18:01:36;6.90;99.90
22984;DHT22;11658;48.908;9.140;2022-11-20T18:04:02;6.90;99.90
22984;DHT22;11658;48.908;9.140;2022-11-20T18:06:29;7.00;99.90
22984;DHT22;11658;48.908;9.140;2022-11-20T18:08:57;7.00;99.90
22984;DHT22;11658;48.908;9.140;2022-11-20T18:11:26;7.00;99.90
22984;DHT22;11658;48.908;9.140;2022-11-20T18:13:55;6.90;99.90
22984;DHT22;11658;48.908;9.140;2022-11-20T18:16:48;6.90;99.90
22984;DHT22;11658;48.908;9.140;2022-11-20T18:19:20;7.00;99.90
22984;DHT22;11658;48.908;9.140;2022-11-20T18:21:45;7.00;99.90
22984;DHT22;11658;48.908;9.140;2022-11-20T18:24:11;7.00;99.90
22984;DHT22;11658;48.908;9.140;2022-11-20T18:26:37;7.00;99.90
22984;DHT22;11658;48.908;9.140;2022-11-20T18:29:03;6.90;99.90
22984;DHT22;11658;48.908;9.140;2022-11-20T18:31:29;7.00;99.90
22984;DHT22;11658;48.908;9.140;2022-11-20T18:33:55;7.10;99.90
22984;DHT22;11658;48.908;9.140;2022-11-20T18:36:25;7.30;99.90
22984;DHT22;11658;48.908;9.140;2022-11-20T18:38:53;7.40;99.90
22984;DHT22;11658;48.908;9.140;2022-11-20T18:41:21;7.30;99.90
22984;DHT22;11658;48.908;9.140;2022-11-20T18:44:11;7.20;99.90
22984;DHT22;11658;48.908;9.140;2022-11-20T18:46:56;7.20;99.90
22984;DHT22;11658;48.908;9.140;2022-11-20T18:49:21;7.00;99.90
22984;DHT22;11658;48.908;9.140;2022-11-20T18:51:47;6.90;99.90
22984;DHT22;11658;48.908;9.140;2022-11-20T18:54:13;6.80;99.90
22984;DHT22;11658;48.908;9.140;2022-11-20T18:56:38;6.70;99.90
22984;DHT22;11658;48.908;9.140;2022-11-20T18:59:08;6.60;99.90
22984;DHT22;11658;48.908;9.140;2022-11-20T19:01:34;6.50;99.90
22984;DHT22;11658;48.908;9.140;2022-11-20T19:04:04;6.50;99.90
22984;DHT22;11658;48.908;9.140;2022-11-20T19:06:30;6.40;99.90
22984;DHT22;11658;48.908;9.140;2022-11-20T19:08:55;6.30;99.90
22984;DHT22;11658;48.908;9.140;2022-11-20T19:11:21;6.30;99.90
22984;DHT22;11658;48.908;9.140;2022-11-20T19:13:50;6.30;99.90
22984;DHT22;11658;48.908;9.140;2022-11-20T19:16:18;6.20;99.90
22984;DHT22;11658;48.908;9.140;2022-11-20T19:18:44;6.20;99.90
22984;DHT22;11658;48.908;9.140;2022-11-20T19:21:22;6.20;99.90
22984;DHT22;11658;48.908;9.140;2022-11-20T19:23:53;6.20;99.90
22984;DHT22;11658;48.908;9.140;2022-11-20T19:26:19;6.20;99.90
22984;DHT22;11658;48.908;9.140;2022-11-20T19:28:46;6.20;99.90
22984;DHT22;11658;48.908;9.140;2022-11-20T19:31:17;6.20;99.90
22984;DHT22;11658;48.908;9.140;2022-11-20T19:33:43;6.10;99.90
22984;DHT22;11658;48.908;9.140;2022-11-20T19:38:40;6.10;99.90
22984;DHT22;11658;48.908;9.140;2022-11-20T19:41:07;6.20;99.90
22984;DHT22;11658;48.908;9.140;2022-11-20T19:43:33;6.10;99.90
22984;DHT22;11658;48.908;9.140;2022-11-20T19:45:58;6.10;99.90
22984;DHT22;11658;48.908;9.140;2022-11-20T19:48:24;6.10;99.90
22984;DHT22;11658;48.908;9.140;2022-11-20T19:50:50;6.10;99.90
22984;DHT22;11658;48.908;9.140;2022-11-20T19:53:16;6.10;99.90
22984;DHT22;11658;48.908;9.140;2022-11-20T19:55:56;6.10;99.90
22984;DHT22;11658;48.908;9.140;2022-11-20T19:58:23;6.10;99.90
22984;DHT22;11658;48.908;9.140;2022-11-20T20:00:49;6.10;99.90
22984;DHT22;11658;48.908;9.140;2022-11-20T20:03:14;6.10;99.90
22984;DHT22;11658;48.908;9.140;2022-11-20T20:05:40;6.10;99.90
22984;DHT22;11658;48.908;9.140;2022-11-20T20:08:05;6.10;99.90
22984;DHT22;11658;48.908;9.140;2022-11-20T20:10:31;6.10;99.90
22984;DHT22;11658;48.908;9.140;2022-11-20T20:12:57;6.20;99.90
22984;DHT22;11658;48.908;9.140;2022-11-20T20:15:22;6.10;99.90
22984;DHT22;11658;48.908;9.140;2022-11-20T20:17:51;6.10;99.90
22984;DHT22;11658;48.908;9.140;2022-11-20T20:20:16;6.10;99.90
22984;DHT22;11658;48.908;9.140;2022-11-20T20:22:42;6.10;99.90
22984;DHT22;11658;48.908;9.140;2022-11-20T20:25:08;6.00;99.90
22984;DHT22;11658;48.908;9.140;2022-11-20T20:27:33;6.00;99.90
22984;DHT22;11658;48.908;9.140;2022-11-20T20:30:02;6.00;99.90
22984;DHT22;11658;48.908;9.140;2022-11-20T20:32:29;5.90;99.90
22984;DHT22;11658;48.908;9.140;2022-11-20T20:34:55;5.90;99.90
22984;DHT22;11658;48.908;9.140;2022-11-20T20:37:21;5.90;99.90
22984;DHT22;11658;48.908;9.140;2022-11-20T20:39:47;5.90;99.90
22984;DHT22;11658;48.908;9.140;2022-11-20T20:42:12;5.90;99.90
22984;DHT22;11658;48.908;9.140;2022-11-20T20:44:38;5.90;99.90
22984;DHT22;11658;48.908;9.140;2022-11-20T20:47:22;5.90;99.90
22984;DHT22;11658;48.908;9.140;2022-11-20T20:49:47;5.90;99.90
22984;DHT22;11658;48.908;9.140;2022-11-20T20:52:13;5.90;99.90
22984;DHT22;11658;48.908;9.140;2022-11-20T20:54:39;5.90;99.90
22984;DHT22;11658;48.908;9.140;2022-11-20T20:57:06;5.90;99.90
22984;DHT22;11658;48.908;9.140;2022-11-20T20:59:32;5.90;99.90
22984;DHT22;11658;48.908;9.140;2022-11-20T21:01:58;5.90;99.90
22984;DHT22;11658;48.908;9.140;2022-11-20T21:04:23;5.90;99.90
22984;DHT22;11658;48.908;9.140;2022-11-20T21:06:49;5.90;99.90
22984;DHT22;11658;48.908;9.140;2022-11-20T21:09:14;5.90;99.90
22984;DHT22;11658;48.908;9.140;2022-11-20T21:11:40;5.80;99.90
22984;DHT22;11658;48.908;9.140;2022-11-20T21:14:06;5.80;99.90
22984;DHT22;11658;48.908;9.140;2022-11-20T21:16:31;5.80;99.90
22984;DHT22;11658;48.908;9.140;2022-11-20T21:19:06;5.70;99.90
22984;DHT22;11658;48.908;9.140;2022-11-20T21:21:32;5.70;99.90
22984;DHT22;11658;48.908;9.140;2022-11-20T21:24:16;5.70;99.90
22984;DHT22;11658;48.908;9.140;2022-11-20T21:26:41;5.60;99.90
22984;DHT22;11658;48.908;9.140;2022-11-20T21:29:07;5.50;99.90
22984;DHT22;11658;48.908;9.140;2022-11-20T21:31:32;5.60;99.90
22984;DHT22;11658;48.908;9.140;2022-11-20T21:33:58;5.50;99.90
22984;DHT22;11658;48.908;9.140;2022-11-20T21:36:27;5.60;99.90
22984;DHT22;11658;48.908;9.140;2022-11-20T21:38:53;5.60;99.90
22984;DHT22;11658;48.908;9.140;2022-11-20T21:41:20;5.60;99.90
22984;DHT22;11658;48.908;9.140;2022-11-20T21:43:46;5.70;99.90
22984;DHT22;11658;48.908;9.140;2022-11-20T21:46:13;5.70;99.90
22984;DHT22;11658;48.908;9.140;2022-11-20T21:48:40;5.60;99.90
22984;DHT22;11658;48.908;9.140;2022-11-20T21:51:13;5.70;99.90
22984;DHT22;11658;48.908;9.140;2022-11-20T21:53:40;5.70;99.90
22984;DHT22;11658;48.908;9.140;2022-11-20T21:56:07;5.70;99.90
22984;DHT22;11658;48.908;9.140;2022-11-20T21:58:34;5.70;99.90
